Time;durP1;ratioP1;P1;durP2;ratioP2;P2;SDS_P1;SDS_P2;PMS_P1;PMS_P2;Temp;Humidity;BMP_temperature;BMP_pressure;BME280_temperature;BME280_humidity;BME280_pressure;Samples;Min_cycle;Max_cycle;Signal;HPM_P1;HPM_P2
2023/03/13 00:00:09;;;;;;;8.50;5.93;;;;;;;24.39;35.30;99864.87;4472222;32;33769;-48
2023/03/13 00:02:36;;;;;;;7.72;5.53;;;;;;;24.39;35.33;99864.06;4467680;32;34317;-50
2023/03/13 00:05:04;;;;;;;8.85;5.87;;;;;;;24.37;35.36;99858.81;4467963;32;34002;-50
2023/03/13 00:07:32;;;;;;;9.85;5.97;;;;;;;24.36;35.42;99853.56;4483674;32;33598;-49
2023/03/13 00:09:59;;;;;;;8.50;5.50;;;;;;;24.36;35.43;99853.56;4481633;32;33474;-50
2023/03/13 00:12:27;;;;;;;9.27;5.90;;;;;;;24.35;35.43;99860.09;4467947;32;34230;-51
2023/03/13 00:14:54;;;;;;;9.90;5.65;;;;;;;24.33;35.48;99857.56;4476761;32;34707;-52
2023/03/13 00:17:22;;;;;;;8.15;5.53;;;;;;;24.32;35.51;99853.19;4483496;32;34736;-51
2023/03/13 00:19:50;;;;;;;9.52;5.70;;;;;;;24.31;35.50;99850.72;4483244;32;33736;-49
2023/03/13 00:22:17;;;;;;;7.57;4.85;;;;;;;24.32;35.56;99850.47;4484530;32;34389;-49
2023/03/13 00:24:45;;;;;;;8.30;5.25;;;;;;;24.31;35.54;99845.25;4485125;32;33962;-51
2023/03/13 00:27:13;;;;;;;9.13;5.57;;;;;;;24.29;35.65;99842.75;4485325;32;34016;-51
2023/03/13 00:29:40;;;;;;;7.93;5.35;;;;;;;24.29;35.69;99847.38;4475587;32;33791;-48
2023/03/13 00:32:08;;;;;;;8.13;5.82;;;;;;;24.29;35.76;99844.62;4474802;32;32927;-48
2023/03/13 00:34:35;;;;;;;8.48;5.32;;;;;;;24.28;35.83;99842.97;4485645;32;33770;-50
2023/03/13 00:37:05;;;;;;;8.32;5.60;;;;;;;24.28;35.78;99837.53;4477474;32;34726;-55
2023/03/13 00:39:32;;;;;;;9.32;5.28;;;;;;;24.28;35.86;99840.25;4477159;32;33724;-54
2023/03/13 00:42:02;;;;;;;8.00;5.77;;;;;;;24.27;35.84;99838.59;4479415;32;33314;-49
2023/03/13 00:44:30;;;;;;;9.45;5.40;;;;;;;24.26;35.86;99829.59;4485031;32;33830;-48
2023/03/13 00:46:57;;;;;;;8.32;5.30;;;;;;;24.25;35.97;99833.37;4485058;32;34753;-50
2023/03/13 00:49:25;;;;;;;9.18;5.10;;;;;;;24.24;35.92;99833.59;4485133;32;34475;-49
2023/03/13 00:51:52;;;;;;;7.53;5.32;;;;;;;24.23;35.93;99834.66;4484986;31;33450;-51
2023/03/13 00:54:22;;;;;;;13.07;5.70;;;;;;;24.23;35.97;99821.84;4485441;32;33472;-48
2023/03/13 00:56:50;;;;;;;9.05;5.45;;;;;;;24.22;35.90;99822.94;4485150;32;33684;-49
2023/03/13 00:59:17;;;;;;;6.87;4.90;;;;;;;24.22;35.97;99825.66;4484136;32;33427;-53
2023/03/13 01:01:45;;;;;;;12.60;5.50;;;;;;;24.21;36.02;99824.00;4469332;32;33589;-50
2023/03/13 01:04:12;;;;;;;7.95;5.12;;;;;;;24.20;36.13;99814.12;4469297;32;34957;-48
2023/03/13 01:06:41;;;;;;;7.82;5.55;;;;;;;24.20;36.11;99819.59;4469438;32;33904;-51
2023/03/13 01:09:11;;;;;;;8.50;5.60;;;;;;;24.19;36.11;99817.94;4469634;32;33565;-53
2023/03/13 01:11:41;;;;;;;7.70;5.32;;;;;;;24.19;36.11;99805.13;4469521;32;34498;-52
2023/03/13 01:14:11;;;;;;;8.98;5.40;;;;;;;24.17;36.11;99804.53;4469533;32;33860;-50
2023/03/13 01:16:39;;;;;;;;;;;;;;;24.17;36.04;99799.09;4470017;32;34062;-51
2023/03/13 01:19:12;;;;;;;8.23;5.03;;;;;;;24.26;35.92;99796.88;4469338;32;33800;-51
2023/03/13 01:21:40;;;;;;;11.23;4.95;;;;;;;24.17;36.04;99799.09;4469300;32;34444;-52
2023/03/13 01:24:08;;;;;;;10.40;4.93;;;;;;;24.14;36.16;99801.44;4469351;32;33539;-51
2023/03/13 01:26:36;;;;;;;9.00;4.82;;;;;;;24.14;36.21;99799.53;4469099;32;33274;-51
2023/03/13 01:29:03;;;;;;;7.85;5.05;;;;;;;24.13;36.19;99791.59;4482512;32;34397;-50
2023/03/13 01:31:32;;;;;;;7.55;5.15;;;;;;;24.11;36.17;99791.00;4485164;32;33159;-51
2023/03/13 01:34:02;;;;;;;9.32;5.07;;;;;;;24.11;36.16;99799.19;4484260;32;34218;-52
2023/03/13 01:36:30;;;;;;;;;;;;;;;24.12;36.18;99789.94;4485513;32;34013;-52
2023/03/13 01:38:59;;;;;;;10.95;5.43;;;;;;;24.21;35.96;99791.28;4484951;32;34641;-49
2023/03/13 01:41:27;;;;;;;6.70;4.97;;;;;;;24.14;36.10;99787.81;4485027;32;34170;-49
2023/03/13 01:43:55;;;;;;;11.52;5.32;;;;;;;24.09;36.08;99783.03;4484817;32;33992;-48
2023/03/13 01:46:28;;;;;;;8.95;5.55;;;;;;;24.07;36.18;99779.72;4485039;32;34073;-50
2023/03/13 01:49:02;;;;;;;6.82;4.65;;;;;;;24.07;36.15;99782.47;4484879;32;34048;-51
2023/03/13 01:52:00;;;;;;;8.90;4.95;;;;;;;24.08;36.14;99775.09;4483678;32;33776;-48
2023/03/13 01:54:31;;;;;;;8.18;5.05;;;;;;;24.09;36.13;99777.59;4469886;32;34522;-51
2023/03/13 01:57:15;;;;;;;7.28;4.57;;;;;;;24.05;36.13;99781.00;4484827;32;33900;-52
2023/03/13 01:59:48;;;;;;;7.43;4.60;;;;;;;24.06;36.04;99778.06;4471046;32;33321;-52
2023/03/13 02:02:16;;;;;;;7.32;4.80;;;;;;;24.05;36.06;99781.00;4483306;32;34052;-51
2023/03/13 02:04:48;;;;;;;7.18;4.78;;;;;;;24.04;36.08;99777.47;4483239;32;33882;-51
2023/03/13 02:07:19;;;;;;;10.27;5.43;;;;;;;24.02;36.09;99771.41;4483391;32;33700;-51
2023/03/13 02:09:50;;;;;;;8.52;5.45;;;;;;;24.02;36.10;99765.97;4483304;32;34607;-52
2023/03/13 02:12:29;;;;;;;7.40;5.10;;;;;;;24.03;36.18;99766.78;4483419;32;33330;-50
2023/03/13 02:15:03;;;;;;;7.78;5.18;;;;;;;24.02;36.14;99767.88;4483804;32;34029;-50
2023/03/13 02:17:31;;;;;;;7.28;5.00;;;;;;;24.02;36.09;99768.69;4483672;32;34141;-49
2023/03/13 02:20:00;;;;;;;7.45;4.85;;;;;;;24.00;36.16;99768.09;4483628;32;34587;-49
2023/03/13 02:22:38;;;;;;;8.18;5.10;;;;;;;24.01;36.13;99769.72;4484753;32;33503;-54
2023/03/13 02:25:17;;;;;;;7.22;4.65;;;;;;;24.01;36.14;99760.72;4470720;32;33946;-50
2023/03/13 02:27:44;;;;;;;11.05;4.82;;;;;;;23.99;36.11;99755.53;4483076;32;34119;-50
2023/03/13 02:30:12;;;;;;;7.37;4.85;;;;;;;23.99;36.13;99763.69;4470331;32;33825;-49
2023/03/13 02:32:40;;;;;;;12.57;4.80;;;;;;;23.98;36.18;99770.22;4483344;32;32933;-49
2023/03/13 02:35:10;;;;;;;7.62;4.80;;;;;;;23.97;36.18;99770.44;4483163;32;34884;-51
2023/03/13 02:37:38;;;;;;;7.25;4.90;;;;;;;23.96;36.18;99775.06;4484795;32;34695;-49
2023/03/13 02:40:10;;;;;;;7.50;4.43;;;;;;;23.97;36.22;99778.59;4483552;32;33936;-52
2023/03/13 02:42:38;;;;;;;7.43;4.55;;;;;;;23.96;36.30;99779.66;4483187;32;33535;-51
2023/03/13 02:45:06;;;;;;;8.70;4.45;;;;;;;23.96;36.25;99780.50;4470015;32;34631;-50
2023/03/13 02:47:33;;;;;;;8.73;4.75;;;;;;;23.95;36.26;99773.41;4484288;32;34137;-49
2023/03/13 02:50:01;;;;;;;8.93;4.43;;;;;;;23.95;36.27;99770.66;4484005;31;34115;-51
2023/03/13 02:52:32;;;;;;;7.62;4.45;;;;;;;23.95;36.22;99776.12;4484448;32;33917;-51
2023/03/13 02:55:11;;;;;;;9.38;4.65;;;;;;;23.93;36.17;99770.91;4483466;32;34561;-51
2023/03/13 02:57:39;;;;;;;7.93;4.78;;;;;;;23.95;36.14;99778.84;4484656;32;34016;-50
2023/03/13 03:00:12;;;;;;;6.62;4.05;;;;;;;23.95;36.12;99781.56;4484282;32;34552;-49
2023/03/13 03:02:40;;;;;;;9.32;4.75;;;;;;;23.93;36.21;99794.59;4483992;32;33179;-50
2023/03/13 03:05:08;;;;;;;6.22;4.18;;;;;;;23.92;36.18;99795.66;4484615;32;33485;-50
2023/03/13 03:07:36;;;;;;;6.45;4.28;;;;;;;23.90;36.26;99786.88;4484488;32;33689;-50
2023/03/13 03:10:06;;;;;;;6.62;4.20;;;;;;;23.90;36.26;99790.44;4484529;32;33483;-51
2023/03/13 03:12:35;;;;;;;6.93;3.97;;;;;;;23.91;36.28;99786.63;4484252;32;33302;-49
2023/03/13 03:15:03;;;;;;;11.27;4.70;;;;;;;23.92;36.19;99790.19;4484204;32;34621;-51
2023/03/13 03:17:31;;;;;;;6.10;3.97;;;;;;;23.92;36.28;99787.47;4484450;32;34776;-49
2023/03/13 03:19:59;;;;;;;7.40;4.28;;;;;;;23.90;36.26;99782.25;4484126;32;34472;-49
2023/03/13 03:22:26;;;;;;;10.45;4.57;;;;;;;23.90;36.24;99775.97;4484003;32;33023;-49
2023/03/13 03:24:54;;;;;;;8.15;5.00;;;;;;;23.88;36.25;99768.03;4484159;32;34696;-48
2023/03/13 03:27:23;;;;;;;7.45;4.25;;;;;;;23.88;36.21;99772.66;4484220;32;33873;-48
2023/03/13 03:29:51;;;;;;;6.28;4.43;;;;;;;23.87;36.26;99782.72;4484170;32;34015;-49
2023/03/13 03:32:20;;;;;;;8.15;4.62;;;;;;;23.87;36.27;99788.16;4484450;32;34107;-53
2023/03/13 03:34:48;;;;;;;7.22;4.60;;;;;;;23.87;36.21;99785.44;4484260;32;33791;-49
2023/03/13 03:37:16;;;;;;;5.90;3.95;;;;;;;23.86;36.23;99791.94;4483784;32;34754;-51
2023/03/13 03:39:43;;;;;;;7.45;4.82;;;;;;;23.86;36.18;99782.94;4484159;32;34875;-50
2023/03/13 03:42:11;;;;;;;8.63;4.22;;;;;;;23.85;36.17;99767.66;4484206;32;34247;-50
2023/03/13 03:44:39;;;;;;;9.52;4.53;;;;;;;23.85;36.19;99779.41;4483786;32;33646;-52
2023/03/13 03:47:08;;;;;;;6.55;4.05;;;;;;;23.85;36.20;99770.41;4484056;32;34665;-50
2023/03/13 03:49:37;;;;;;;7.50;4.55;;;;;;;23.84;36.16;99783.19;4484182;32;33369;-51
2023/03/13 03:52:05;;;;;;;7.40;4.50;;;;;;;23.84;36.18;99783.19;4483912;32;34203;-51
2023/03/13 03:54:34;;;;;;;6.62;4.43;;;;;;;23.82;36.19;99785.28;4483777;32;33962;-49
2023/03/13 03:57:01;;;;;;;7.50;4.28;;;;;;;23.82;36.21;99796.19;4483328;32;34463;-51
2023/03/13 03:59:29;;;;;;;6.28;4.22;;;;;;;23.81;36.23;99790.97;4483843;32;33898;-51
2023/03/13 04:01:57;;;;;;;6.57;4.25;;;;;;;23.82;36.20;99793.47;4483675;32;33441;-52
2023/03/13 04:04:25;;;;;;;6.30;4.07;;;;;;;23.81;36.22;99807.34;4483454;32;33992;-52
2023/03/13 04:06:53;;;;;;;7.22;4.18;;;;;;;23.81;36.19;99804.59;4483609;32;33991;-50
2023/03/13 04:09:20;;;;;;;6.37;4.15;;;;;;;23.80;36.19;99803.78;4483690;32;33845;-51
2023/03/13 04:11:48;;;;;;;6.25;4.15;;;;;;;23.80;36.20;99814.69;4483972;32;33538;-51
2023/03/13 04:14:15;;;;;;;7.93;4.15;;;;;;;23.79;36.19;99806.75;4483676;32;33365;-52
2023/03/13 04:16:43;;;;;;;7.30;4.18;;;;;;;23.79;36.21;99812.19;4483840;32;35363;-49
2023/03/13 04:19:13;;;;;;;8.48;4.18;;;;;;;23.78;36.24;99814.09;4483795;32;34418;-48
2023/03/13 04:21:40;;;;;;;6.35;4.35;;;;;;;23.80;36.23;99811.13;4483704;32;33917;-49
2023/03/13 04:24:08;;;;;;;6.93;4.45;;;;;;;23.79;36.22;99802.13;4483467;32;34613;-48
2023/03/13 04:26:37;;;;;;;6.70;4.40;;;;;;;23.79;36.23;99817.63;4483516;32;34728;-53
2023/03/13 04:29:05;;;;;;;6.25;4.12;;;;;;;23.79;36.25;99823.09;4483509;32;34095;-48
2023/03/13 04:31:33;;;;;;;6.35;4.18;;;;;;;23.78;36.26;99826.84;4482365;32;34226;-54
2023/03/13 04:34:01;;;;;;;7.12;4.20;;;;;;;23.76;36.25;99824.34;4483420;32;33465;-49
2023/03/13 04:36:29;;;;;;;9.20;4.22;;;;;;;23.75;36.29;99825.44;4482990;32;34117;-48
2023/03/13 04:38:56;;;;;;;8.48;4.65;;;;;;;23.75;36.28;99830.06;4483285;32;34764;-52
2023/03/13 04:41:25;;;;;;;7.15;3.87;;;;;;;23.76;36.30;99826.25;4483351;32;34306;-49
2023/03/13 04:43:54;;;;;;;8.40;3.70;;;;;;;23.75;36.31;99827.31;4483132;32;33431;-51
2023/03/13 04:46:22;;;;;;;5.45;3.87;;;;;;;23.74;36.32;99826.50;4483245;32;34734;-50
2023/03/13 04:48:50;;;;;;;9.70;4.87;;;;;;;23.73;36.32;99813.91;4483014;32;33880;-50
2023/03/13 04:51:18;;;;;;;10.15;4.60;;;;;;;23.73;36.32;99816.63;4483186;32;33535;-49
2023/03/13 04:53:45;;;;;;;5.90;4.03;;;;;;;23.74;36.33;99815.59;4483088;32;33884;-59
2023/03/13 04:56:23;;;;;;;9.60;4.32;;;;;;;23.71;36.38;99821.50;4482797;32;34812;-56
2023/03/13 04:59:10;;;;;;;12.15;3.83;;;;;;;23.73;36.32;99834.88;4482965;32;33872;-57
2023/03/13 05:01:38;;;;;;;7.80;3.67;;;;;;;23.72;34.86;99844.94;4482845;32;34103;-56
2023/03/13 05:04:06;;;;;;;8.10;3.65;;;;;;;23.72;34.23;99841.37;4483022;32;33935;-55
2023/03/13 05:06:34;;;;;;;7.70;3.92;;;;;;;23.70;34.29;99843.53;4482742;32;34071;-55
2023/03/13 05:09:02;;;;;;;6.87;3.33;;;;;;;23.67;34.40;99844.78;4484944;32;34963;-57
2023/03/13 05:11:30;;;;;;;6.25;3.80;;;;;;;23.64;34.44;99843.38;4471462;32;33779;-54
2023/03/13 05:13:58;;;;;;;8.55;3.87;;;;;;;23.62;34.45;99837.28;4469546;32;34773;-55
2023/03/13 05:16:26;;;;;;;8.57;3.85;;;;;;;23.61;34.47;99837.50;4469325;32;34689;-57
2023/03/13 05:18:54;;;;;;;11.63;3.42;;;;;;;23.59;34.41;99843.16;4469455;32;33826;-57
2023/03/13 05:21:21;;;;;;;6.20;3.33;;;;;;;23.58;34.37;99844.22;4469249;32;33706;-56
2023/03/13 05:23:50;;;;;;;8.27;3.75;;;;;;;23.56;34.40;99851.81;4469497;32;34668;-54
2023/03/13 05:26:20;;;;;;;11.05;4.05;;;;;;;23.54;34.55;99850.34;4469444;32;34122;-53
2023/03/13 05:28:47;;;;;;;11.63;4.60;;;;;;;23.54;34.64;99851.19;4479970;32;33137;-55
2023/03/13 05:31:15;;;;;;;10.85;4.15;;;;;;;23.53;34.63;99846.81;4483318;32;33035;-56
2023/03/13 05:33:43;;;;;;;7.78;3.60;;;;;;;23.53;34.63;99862.31;4483071;32;33717;-56
2023/03/13 05:36:11;;;;;;;9.63;3.50;;;;;;;23.52;34.63;99863.37;4483001;32;33698;-58
2023/03/13 05:38:39;;;;;;;10.55;3.47;;;;;;;23.50;34.65;99858.16;4483374;32;33880;-58
2023/03/13 05:41:07;;;;;;;12.75;3.90;;;;;;;23.49;34.61;99853.75;4483521;32;33443;-53
2023/03/13 05:43:35;;;;;;;6.15;3.78;;;;;;;23.49;34.58;99861.91;4482987;32;34629;-57
2023/03/13 05:46:02;;;;;;;6.25;3.75;;;;;;;23.47;34.56;99849.59;4481452;32;33977;-58
2023/03/13 05:48:30;;;;;;;7.75;3.53;;;;;;;23.46;34.52;99867.84;4483114;32;33938;-57
2023/03/13 05:50:58;;;;;;;7.85;3.72;;;;;;;23.45;34.52;99859.88;4482758;32;33506;-55
2023/03/13 05:53:26;;;;;;;7.50;3.62;;;;;;;23.44;34.49;99864.50;4482924;32;33408;-57
2023/03/13 05:55:54;;;;;;;7.10;3.42;;;;;;;23.45;34.48;99862.59;4483179;32;33569;-57
2023/03/13 05:58:21;;;;;;;8.52;3.50;;;;;;;23.41;34.48;99865.78;4484562;32;33666;-57
2023/03/13 06:00:49;;;;;;;7.57;3.42;;;;;;;23.41;34.45;99865.78;4485028;32;33814;-51
2023/03/13 06:03:19;;;;;;;6.30;3.53;;;;;;;23.40;34.46;99866.81;4484879;32;34527;-56
2023/03/13 06:05:49;;;;;;;8.33;3.60;;;;;;;23.40;34.45;99863.28;4483962;32;33877;-57
2023/03/13 06:08:17;;;;;;;6.57;3.53;;;;;;;23.40;34.44;99863.28;4484778;32;33977;-56
2023/03/13 06:10:48;;;;;;;7.78;3.90;;;;;;;23.38;34.44;99854.50;4484625;32;34343;-57
2023/03/13 06:13:16;;;;;;;6.37;3.40;;;;;;;23.38;34.44;99859.97;4484929;32;32660;-53
2023/03/13 06:15:51;;;;;;;6.60;3.37;;;;;;;23.36;34.43;99853.88;4485005;32;33927;-57
2023/03/13 06:18:22;;;;;;;7.43;3.47;;;;;;;23.35;34.44;99850.34;4484620;32;34490;-54
2023/03/13 06:20:56;;;;;;;5.87;3.50;;;;;;;23.35;34.42;99854.94;4484273;32;33678;-56
2023/03/13 06:23:24;;;;;;;5.00;3.12;;;;;;;23.33;34.45;99852.47;4483313;32;34624;-54
2023/03/13 06:25:51;;;;;;;5.62;3.35;;;;;;;23.33;34.43;99847.00;4484940;32;33618;-54
2023/03/13 06:28:19;;;;;;;5.75;3.15;;;;;;;23.32;34.42;99849.97;4475847;32;33703;-56
2023/03/13 06:30:47;;;;;;;10.35;3.75;;;;;;;23.31;34.42;99843.66;4468771;32;33448;-58
2023/03/13 06:33:14;;;;;;;6.40;3.37;;;;;;;23.32;34.40;99849.97;4468964;32;33490;-57
2023/03/13 06:35:42;;;;;;;6.12;3.50;;;;;;;23.29;34.41;99834.91;4468847;32;34884;-56
2023/03/13 06:38:23;;;;;;;4.95;3.12;;;;;;;23.28;34.40;99838.69;4468580;32;33887;-55
2023/03/13 06:40:51;;;;;;;7.53;3.08;;;;;;;23.28;34.39;99844.12;4468767;32;33869;-58
2023/03/13 06:43:18;;;;;;;6.82;3.00;;;;;;;23.28;34.37;99846.03;4468673;32;33847;-56
2023/03/13 06:45:46;;;;;;;6.05;3.47;;;;;;;23.27;34.37;99853.38;4468552;32;33934;-56
2023/03/13 06:48:14;;;;;;;5.82;3.33;;;;;;;23.28;34.37;99865.09;4468655;32;33614;-55
2023/03/13 06:50:41;;;;;;;7.47;3.67;;;;;;;23.26;34.35;99857.13;4472019;32;34057;-54
2023/03/13 06:53:17;;;;;;;9.02;3.75;;;;;;;23.26;34.33;99853.56;4470974;32;33899;-56
2023/03/13 06:55:44;;;;;;;5.10;3.55;;;;;;;23.26;34.33;99859.00;4467381;32;34884;-58
2023/03/13 06:58:12;;;;;;;6.03;3.47;;;;;;;23.25;34.31;99860.91;4468429;32;34123;-53
2023/03/13 07:00:57;;;;;;;6.22;3.53;;;;;;;23.23;34.30;99854.88;4468697;32;33552;-57
2023/03/13 07:03:25;;;;;;;6.70;2.90;;;;;;;23.24;34.29;99855.69;4468463;32;34576;-56
2023/03/13 07:05:56;;;;;;;6.32;3.17;;;;;;;23.23;34.29;99856.75;4468579;32;33984;-54
2023/03/13 07:08:24;;;;;;;5.90;3.22;;;;;;;23.22;34.29;99855.91;4468771;32;33369;-56
2023/03/13 07:10:53;;;;;;;5.57;3.15;;;;;;;23.21;34.27;99848.78;4468651;32;33389;-55
2023/03/13 07:13:21;;;;;;;6.20;3.42;;;;;;;23.21;34.30;99856.97;4468557;32;34077;-54
2023/03/13 07:15:48;;;;;;;6.62;3.17;;;;;;;23.21;34.29;99856.13;4468638;32;34963;-57
2023/03/13 07:18:16;;;;;;;5.43;3.00;;;;;;;23.20;34.29;99846.31;4478092;32;33891;-58
2023/03/13 07:20:44;;;;;;;5.45;3.22;;;;;;;23.20;34.26;99854.47;4484102;32;34430;-57
2023/03/13 07:23:11;;;;;;;5.47;3.03;;;;;;;23.19;34.25;99845.47;4484035;32;34674;-50
2023/03/13 07:25:39;;;;;;;4.68;3.10;;;;;;;23.19;34.25;99841.94;4483969;32;33575;-56
2023/03/13 07:28:07;;;;;;;5.28;2.97;;;;;;;23.18;34.24;99849.25;4476640;32;33584;-54
2023/03/13 07:30:34;;;;;;;6.57;3.47;;;;;;;23.19;34.27;99850.09;4467691;32;34048;-57
2023/03/13 07:33:02;;;;;;;5.70;2.75;;;;;;;23.18;34.33;99849.25;4467806;32;33833;-57
2023/03/13 07:35:29;;;;;;;7.18;3.10;;;;;;;23.18;34.31;99852.00;4468474;32;34762;-52
2023/03/13 07:37:57;;;;;;;5.32;3.20;;;;;;;23.19;34.29;99844.66;4468422;32;34454;-53
2023/03/13 07:40:25;;;;;;;5.70;3.35;;;;;;;23.19;34.34;99845.47;4468191;32;34341;-58
2023/03/13 07:42:52;;;;;;;4.97;2.97;;;;;;;23.20;34.34;99840.87;4468479;32;33827;-57
2023/03/13 07:45:20;;;;;;;4.93;3.00;;;;;;;23.20;34.34;99829.97;4468182;32;33986;-56
2023/03/13 07:47:47;;;;;;;5.43;3.00;;;;;;;23.22;34.33;99833.28;4467902;32;34701;-57
2023/03/13 07:50:15;;;;;;;8.63;3.03;;;;;;;23.23;34.32;99832.25;4468135;32;33628;-54
2023/03/13 07:52:43;;;;;;;5.40;3.30;;;;;;;23.24;34.31;99825.75;4468390;32;34631;-56
2023/03/13 07:55:10;;;;;;;6.70;2.70;;;;;;;23.25;34.31;99824.69;4468062;32;33955;-52
2023/03/13 07:57:38;;;;;;;4.93;2.92;;;;;;;23.27;34.30;99823.41;4468022;32;33816;-56
2023/03/13 08:00:10;;;;;;;4.80;2.65;;;;;;;23.27;34.31;99822.56;4468114;32;33575;-54
2023/03/13 08:02:38;;;;;;;6.07;3.17;;;;;;;23.28;34.35;99811.47;4467733;32;34039;-54
2023/03/13 08:05:06;;;;;;;5.47;3.05;;;;;;;23.29;34.33;99813.13;4468047;32;34706;-57
2023/03/13 08:07:34;;;;;;;5.47;2.90;;;;;;;23.31;34.34;99808.28;4468109;32;33923;-55
2023/03/13 08:10:01;;;;;;;4.87;2.72;;;;;;;23.32;34.34;99803.69;4468136;32;33127;-57
2023/03/13 08:12:29;;;;;;;6.57;2.92;;;;;;;23.31;34.35;99794.66;4467961;32;34231;-56
2023/03/13 08:14:57;;;;;;;4.37;2.72;;;;;;;23.33;34.34;99797.19;4468111;32;34895;-56
2023/03/13 08:17:24;;;;;;;4.93;2.40;;;;;;;23.34;34.34;99788.78;4467776;32;34692;-57
2023/03/13 08:19:52;;;;;;;4.97;3.00;;;;;;;23.35;34.34;99787.72;4467888;32;33508;-57
2023/03/13 08:22:20;;;;;;;5.60;2.80;;;;;;;23.36;34.36;99781.22;4467937;32;33895;-57
2023/03/13 08:24:47;;;;;;;5.70;3.17;;;;;;;23.37;34.35;99779.34;4467799;32;34610;-57
2023/03/13 08:27:15;;;;;;;6.37;2.87;;;;;;;23.38;34.35;99773.66;4469272;32;34853;-57
2023/03/13 08:29:42;;;;;;;6.40;2.90;;;;;;;23.38;34.36;99775.53;4483312;32;34344;-54
2023/03/13 08:32:10;;;;;;;5.72;2.83;;;;;;;23.40;34.35;99770.69;4483445;32;33744;-57
2023/03/13 08:34:37;;;;;;;8.15;2.85;;;;;;;23.40;34.34;99770.69;4483317;32;34853;-57
2023/03/13 08:37:05;;;;;;;4.97;2.70;;;;;;;23.41;34.33;99766.94;4483160;32;34104;-56
2023/03/13 08:39:34;;;;;;;4.40;2.70;;;;;;;23.42;34.33;99763.16;4478165;32;33867;-56
2023/03/13 08:42:02;;;;;;;5.72;3.03;;;;;;;23.42;34.34;99765.88;4480161;32;34636;-55
2023/03/13 08:44:29;;;;;;;5.25;2.90;;;;;;;23.45;34.33;99764.56;4480081;32;33914;-54
2023/03/13 08:46:58;;;;;;;5.43;2.92;;;;;;;23.46;34.35;99766.25;4479690;32;33961;-57
2023/03/13 08:49:26;;;;;;;5.25;3.08;;;;;;;23.46;34.36;99758.91;4469293;32;33365;-57
2023/03/13 08:51:55;;;;;;;5.65;2.33;;;;;;;23.48;34.37;99764.94;4470269;32;34095;-56
2023/03/13 08:54:22;;;;;;;5.22;2.85;;;;;;;23.48;34.38;99759.50;4482533;32;33684;-56
2023/03/13 08:56:50;;;;;;;5.20;2.50;;;;;;;23.49;34.41;99758.44;4469827;32;35248;-53
2023/03/13 08:59:17;;;;;;;3.70;2.35;;;;;;;23.50;34.38;99756.53;4476582;32;34049;-55
2023/03/13 09:01:45;;;;;;;6.93;2.30;;;;;;;23.49;34.40;99749.44;4480053;32;33568;-53
2023/03/13 09:04:13;;;;;;;4.72;2.42;;;;;;;23.51;34.41;99742.72;4477023;32;34764;-56
2023/03/13 09:06:40;;;;;;;5.65;2.40;;;;;;;23.52;34.42;99752.53;4469317;32;34443;-57
2023/03/13 09:09:08;;;;;;;8.02;2.55;;;;;;;23.53;34.40;99750.66;4482726;32;33454;-51
2023/03/13 09:11:36;;;;;;;4.25;2.33;;;;;;;23.53;34.41;99743.31;4476822;32;34628;-57
2023/03/13 09:14:04;;;;;;;5.35;2.85;;;;;;;23.54;34.39;99736.78;4469067;32;33963;-53
2023/03/13 09:16:32;;;;;;;4.70;2.60;;;;;;;23.55;34.39;99735.75;4469350;32;34535;-58
2023/03/13 09:19:00;;;;;;;5.30;2.40;;;;;;;23.56;34.38;99739.31;4479856;32;33440;-53
2023/03/13 09:21:29;;;;;;;6.12;2.10;;;;;;;23.56;34.38;99731.97;4484823;32;33849;-58
2023/03/13 09:23:56;;;;;;;4.53;2.30;;;;;;;23.57;34.37;99730.06;4485024;32;34946;-56
2023/03/13 09:26:24;;;;;;;5.05;2.40;;;;;;;23.57;34.36;99728.19;4484870;32;33985;-57
2023/03/13 09:28:52;;;;;;;7.37;2.20;;;;;;;23.60;34.33;99729.63;4472509;32;34583;-57
2023/03/13 09:31:21;;;;;;;5.75;2.70;;;;;;;23.59;34.36;99728.75;4469528;32;33959;-59
2023/03/13 09:33:49;;;;;;;4.72;2.42;;;;;;;23.60;34.36;99727.72;4468985;32;33680;-57
2023/03/13 09:36:17;;;;;;;5.57;2.37;;;;;;;23.63;34.34;99726.41;4476621;32;34888;-56
2023/03/13 09:38:52;;;;;;;4.47;2.30;;;;;;;23.62;34.34;99725.59;4483727;32;33833;-53
2023/03/13 09:41:22;;;;;;;7.68;2.40;;;;;;;23.62;34.34;99724.75;4469276;32;33973;-55
2023/03/13 09:43:51;;;;;;;7.10;2.70;;;;;;;23.63;34.34;99721.81;4474087;32;34371;-56
2023/03/13 09:46:41;;;;;;;6.72;2.75;;;;;;;23.64;34.32;99715.34;4483463;32;34686;-56
2023/03/13 09:49:17;;;;;;;5.32;2.83;;;;;;;23.68;34.28;99712.97;4470708;32;32326;-54
2023/03/13 09:51:47;;;;;;;6.20;2.30;;;;;;;23.65;34.33;99708.84;4469065;32;33059;-57
2023/03/13 09:54:14;;;;;;;4.55;2.58;;;;;;;23.66;34.32;99718.66;4466675;32;33777;-54
2023/03/13 09:56:49;;;;;;;6.50;2.53;;;;;;;23.67;34.32;99712.16;4470353;32;33898;-56
2023/03/13 09:59:19;;;;;;;4.70;2.33;;;;;;;23.67;34.33;99703.16;4484376;32;34044;-58
2023/03/13 10:01:46;;;;;;;3.63;2.00;;;;;;;23.67;34.32;99703.16;4481940;32;33985;-60
2023/03/13 10:04:26;;;;;;;5.03;2.37;;;;;;;23.67;34.31;99701.25;4483259;32;34666;-59
2023/03/13 10:06:54;;;;;;;5.07;2.55;;;;;;;23.70;34.33;99693.69;4478877;32;34980;-57
2023/03/13 10:09:26;;;;;;;3.47;2.10;;;;;;;23.68;34.34;99692.00;4476260;32;34113;-54
2023/03/13 10:12:03;;;;;;;3.90;2.40;;;;;;;23.66;34.36;99680.53;4470792;32;33859;-58
2023/03/13 10:14:38;;;;;;;3.50;2.10;;;;;;;23.68;34.32;99689.28;4473642;32;33846;-59
2023/03/13 10:17:08;;;;;;;5.07;2.42;;;;;;;23.67;34.28;99682.19;4468369;32;34667;-58
2023/03/13 10:19:40;;;;;;;4.93;2.55;;;;;;;23.67;34.20;99678.63;4481146;32;34338;-58
2023/03/13 10:22:18;;;;;;;5.40;2.40;;;;;;;23.68;34.05;99678.38;4483418;32;33938;-59
2023/03/13 10:24:58;;;;;;;5.15;2.50;;;;;;;23.70;34.02;99680.06;4483581;32;33807;-57
2023/03/13 10:27:26;;;;;;;5.47;2.50;;;;;;;23.72;34.06;99656.16;4479467;32;33957;-59
2023/03/13 10:29:53;;;;;;;10.00;2.58;;;;;;;23.70;34.21;99650.94;4481370;32;33430;-59
2023/03/13 10:32:21;;;;;;;5.72;2.28;;;;;;;23.70;34.30;99650.94;4482425;32;34085;-56
2023/03/13 10:34:51;;;;;;;5.78;2.35;;;;;;;23.72;34.29;99650.69;4484492;32;34636;-59
2023/03/13 10:37:25;;;;;;;5.97;2.90;;;;;;;23.72;34.28;99667.03;4482952;32;33971;-59
2023/03/13 10:39:52;;;;;;;6.30;2.60;;;;;;;23.71;34.25;99665.37;4477873;32;33305;-60
2023/03/13 10:42:26;;;;;;;5.20;2.62;;;;;;;23.72;34.15;99662.41;4484440;32;33552;-59
2023/03/13 10:44:58;;;;;;;8.50;2.60;;;;;;;23.72;34.00;99664.31;4483734;32;34905;-59
2023/03/13 10:47:26;;;;;;;6.50;2.72;;;;;;;23.72;33.91;99661.59;4481912;32;33736;-59
2023/03/13 10:49:56;;;;;;;5.70;2.53;;;;;;;23.70;33.91;99653.66;4468466;32;33064;-55
2023/03/13 10:52:33;;;;;;;5.12;2.50;;;;;;;23.68;34.00;99658.50;4474670;32;34635;-59
2023/03/13 10:55:05;;;;;;;7.12;3.53;;;;;;;23.67;33.89;99645.94;4482666;32;35208;-60
2023/03/13 10:57:35;;;;;;;14.68;9.27;;;;;;;23.67;33.55;99643.22;4478708;32;33981;-59
2023/03/13 11:00:22;;;;;;;10.63;7.25;;;;;;;23.63;33.26;99645.53;4467839;32;33456;-59
2023/03/13 11:02:49;;;;;;;8.82;5.18;;;;;;;23.62;33.22;99634.87;4456462;32;33804;-59
2023/03/13 11:05:31;;;;;;;9.32;6.18;;;;;;;23.62;33.31;99632.16;4468517;32;33854;-60
2023/03/13 11:08:22;;;;;;;23.65;15.32;;;;;;;23.60;32.89;99624.22;4471121;32;34737;-59
2023/03/13 11:11:00;;;;;;;36.47;24.65;;;;;;;23.59;32.79;99628.00;4483043;32;34428;-59
2023/03/13 11:13:35;;;;;;;37.40;27.25;;;;;;;23.60;32.88;99618.78;4484232;32;34058;-59
2023/03/13 11:16:13;;;;;;;36.13;26.50;;;;;;;23.60;32.93;99607.06;4484034;32;33997;-60
2023/03/13 11:19:05;;;;;;;37.53;26.15;;;;;;;23.58;32.79;99615.44;4483947;32;34667;-59
2023/03/13 11:21:42;;;;;;;31.80;23.50;;;;;;;23.59;32.36;99586.31;4482790;32;33973;-59
2023/03/13 11:24:14;;;;;;;31.90;21.80;;;;;;;23.59;32.18;99583.59;4484079;32;34757;-59
2023/03/13 11:27:11;;;;;;;25.02;18.58;;;;;;;23.57;32.14;99588.44;4470132;32;33792;-60
2023/03/13 11:29:48;;;;;;;27.83;17.92;;;;;;;23.61;31.51;99578.75;4471995;32;33394;-59
2023/03/13 11:32:34;;;;;;;27.52;18.00;;;;;;;23.59;31.34;99592.59;4470406;32;33484;-59
2023/03/13 11:35:05;;;;;;;20.95;14.45;;;;;;;23.59;31.19;99584.41;4471000;32;34607;-60
2023/03/13 11:37:34;;;;;;;19.77;13.88;;;;;;;23.58;31.80;99590.94;4483212;32;34774;-59
2023/03/13 11:40:21;;;;;;;22.60;13.77;;;;;;;23.57;32.06;99589.28;4482864;32;33503;-59
2023/03/13 11:43:27;;;;;;;18.08;12.48;;;;;;;23.62;32.18;99588.56;4484018;32;34526;-60